KCAK/CAK METAR and TAF weather

Enter ICAO airport designator
Station Type Date Time Source
KCAK METAR 2019/02/20 23:51 UTC NOAA

KCAK 202351Z 14010KT 1 1/2SM -RA BR OVC003 03/02 A2979 RMK AO2 SFC VIS 1 3/4 SLP101 4/002 P0014 60030 T00330017 10039 20011 58025 $


Station Type Date Time Source
KCAK Decoded METAR 2019/02/20 23:51 UTC NOAA

AKRON-CANTON REGIONAL AIRPORT , OH, United States (KCAK) 40-55N 081-27W 377M
Feb 20, 2019 - 06:51 PM EST / 2019.02.20 2351 UTC
Wind: from the SE (140 degrees) at 12 MPH (10 KT):0
Visibility: 1 1/2 mile(s):0
Sky conditions: overcast
Weather: light rain; mist; 2 inches of snow on ground
Precipitation last hour: 0.14 inches
Temperature: 37.9 F (3.3 C)
Dew Point: 35.1 F (1.7 C)
Relative Humidity: 89%
Pressure (altimeter): 29.79 in. Hg (1008 hPa)
Pressure tendency: 0.07 inches (2.5 hPa) lower than three hours ago
ob: KCAK 202351Z 14010KT 1 1/2SM -RA BR OVC003 03/02 A2979 RMK AO2 SFC VIS 1 3/4 SLP101 4/002 P0014 60030 T00330017 10039 20011 58025
cycle: 0

Station Type Date Time Source
KCAK TAF 2019/02/20 21:06 UTC NOAA

TAF
AMD KCAK 202103Z 2021/2118 12014KT 3SM -DZ BR OVC005
TEMPO 2021/2024 1SM -RA BR OVC003
FM210200 19010KT 3/4SM -RA BR OVC005
FM210600 24011KT 2SM BR OVC008
FM211100 25011KT P6SM OVC010
FM211600 25011KT P6SM BKN025


Example: see airport list